Oregon State Flying Club

The Oregon State Flying Club is a non-profit organization committed to providing safe and inexpensive flying to the Oregon State University and Linn-Benton Community College communities. The Club currently owns three aircraft based at the Corvallis Airport for training, travel, and recreational purposes. Founded in 1952 and incorporated in 1956 the OSFC is one of the oldest continuously active flying clubs in the United States.

a Rafflecopter giveaway

News & Announcements

All-Member Meeting

Next Meeting: Tuesday, October 14, 7pm @ Memorial Union Board Room

Monthly Board Meeting

Next Meeting: Tuesday, October 14, 6pm @ Memorial Union Board Room

Current METAR KCVO

Raw METAR:  KCVO 301735Z AUTO 00000KT 10SM BKN070 OVC090 16/13 A3019 RMK AO1

This is a report for Corvallis Municipal Automatic Weather Observing / Reporting System, United States. The report was made 17 minutes ago, at 17:35 UTC. The wind was calm. The temperature was 61 °F (16 °C), with a dew-point at 55 °F (13 °C). The atmospheric pressure was 30.19 inHg (1022 hPa). The relative humidity was 82.4%. There were broken clouds at a height of 7000 feet (2134 meters). The sky was overcast from a height of 9000 feet (2743 meter) The overall visibility was 10.0 miles (16.1 kilometers).